Time;durP1;ratioP1;P1;durP2;ratioP2;P2;SDS_P1;SDS_P2;PMS_P1;PMS_P2;Temp;Humidity;BMP_temperature;BMP_pressure;BME280_temperature;BME280_humidity;BME280_pressure;Samples;Min_cycle;Max_cycle;Signal;HPM_P1;HPM_P2
2024/01/24 00:01:56;;;;;;;5.47;1.75;;;;;;;11.80;100.00;101382.16;4991192;28;20133;-80
2024/01/24 00:04:22;;;;;;;6.40;2.00;;;;;;;11.75;100.00;101345.31;4975338;28;20038;-80
2024/01/24 00:06:48;;;;;;;6.30;2.55;;;;;;;11.80;100.00;101347.66;4975284;28;20046;-80
2024/01/24 00:09:13;;;;;;;5.68;1.73;;;;;;;11.86;100.00;101368.81;4992884;28;20037;-80
2024/01/24 00:11:39;;;;;;;4.47;1.50;;;;;;;11.80;100.00;101351.09;4993266;28;20393;-80
2024/01/24 00:14:04;;;;;;;5.53;1.60;;;;;;;11.89;100.00;101367.78;4975635;28;20064;-80
2024/01/24 00:16:30;;;;;;;5.70;1.80;;;;;;;11.96;100.00;101385.47;4992887;28;20029;-80
2024/01/24 00:18:55;;;;;;;3.00;1.50;;;;;;;12.07;100.00;101398.59;4975829;28;20058;-81
2024/01/24 00:21:20;;;;;;;4.30;1.58;;;;;;;12.09;100.00;101398.50;4992845;28;20433;-80
2024/01/24 00:23:46;;;;;;;3.95;1.58;;;;;;;11.99;100.00;101379.25;4992840;28;20081;-80
2024/01/24 00:26:11;;;;;;;3.50;1.50;;;;;;;12.03;100.00;101384.19;4992920;28;20577;-80
2024/01/24 00:28:36;;;;;;;4.65;1.85;;;;;;;12.10;100.00;101368.28;4993035;28;20385;-81
2024/01/24 00:31:02;;;;;;;3.42;1.50;;;;;;;12.06;100.00;101344.31;4976758;28;20041;-80
2024/01/24 00:33:29;;;;;;;3.33;1.60;;;;;;;12.14;100.00;101360.22;4996863;28;20132;-81
2024/01/24 00:35:55;;;;;;;5.53;1.63;;;;;;;12.05;100.00;101346.09;4996797;28;20029;-80
2024/01/24 00:38:20;;;;;;;3.70;1.42;;;;;;;12.17;100.00;101347.09;4996644;28;20034;-80
2024/01/24 00:40:45;;;;;;;3.72;1.33;;;;;;;12.12;100.00;101345.72;4996794;28;20036;-79
2024/01/24 00:43:11;;;;;;;3.38;1.20;;;;;;;12.04;100.00;101326.31;4996794;28;20023;-79
2024/01/24 00:45:36;;;;;;;3.63;1.45;;;;;;;12.20;100.00;101359.03;4996772;28;20022;-79
2024/01/24 00:48:01;;;;;;;2.97;1.27;;;;;;;12.02;100.00;101332.50;4996568;28;20084;-79
2024/01/24 00:50:27;;;;;;;5.78;1.85;;;;;;;12.12;100.00;101346.56;4996295;28;20046;-79
2024/01/24 00:52:55;;;;;;;3.63;1.30;;;;;;;12.16;100.00;101347.19;4995895;28;20030;-79
2024/01/24 00:55:20;;;;;;;3.88;1.33;;;;;;;12.01;100.00;101331.69;4996650;28;20026;-79
2024/01/24 00:57:46;;;;;;;3.25;1.67;;;;;;;12.10;100.00;101363.94;4996448;28;20101;-79
2024/01/24 01:00:12;;;;;;;2.75;1.38;;;;;;;11.84;100.00;101328.44;4996476;28;20052;-79
2024/01/24 01:02:37;;;;;;;3.22;1.50;;;;;;;11.94;100.00;101339.91;4996399;28;20027;-79
2024/01/24 01:05:04;;;;;;;5.10;1.70;;;;;;;11.74;100.00;101316.03;4996116;28;20125;-79
2024/01/24 01:07:29;;;;;;;3.58;1.65;;;;;;;11.74;100.00;101334.13;4996074;28;20030;-79
2024/01/24 01:09:55;;;;;;;3.25;1.80;;;;;;;11.60;100.00;101326.38;4996013;28;20037;-78
2024/01/24 01:12:20;;;;;;;5.32;1.80;;;;;;;11.44;100.00;101333.34;4996387;28;20023;-79
2024/01/24 01:14:46;;;;;;;2.63;1.52;;;;;;;11.41;100.00;101328.38;4996283;28;20470;-79
2024/01/24 01:17:11;;;;;;;3.22;1.50;;;;;;;11.35;100.00;101326.13;4995878;28;20054;-79
2024/01/24 01:19:36;;;;;;;5.60;1.88;;;;;;;11.37;100.00;101329.47;4995916;28;20029;-79
2024/01/24 01:22:03;;;;;;;4.10;1.83;;;;;;;11.36;100.00;101320.88;4995885;28;20035;-80
2024/01/24 01:24:28;;;;;;;4.05;2.05;;;;;;;11.39;100.00;101319.84;4995787;28;20061;-79
2024/01/24 01:26:53;;;;;;;3.22;1.95;;;;;;;11.40;100.00;101321.50;4995963;28;20387;-78
2024/01/24 01:29:19;;;;;;;4.57;1.77;;;;;;;11.42;100.00;101324.88;4995771;28;20027;-79
2024/01/24 01:31:44;;;;;;;4.00;2.08;;;;;;;11.42;100.00;101320.53;4995619;28;20064;-79
2024/01/24 01:34:09;;;;;;;2.85;1.58;;;;;;;11.42;100.00;101294.66;4995681;28;20086;-79
2024/01/24 01:36:35;;;;;;;3.38;1.75;;;;;;;11.35;100.00;101323.56;4977960;28;20042;-79
2024/01/24 01:39:00;;;;;;;4.50;1.63;;;;;;;11.36;100.00;101328.63;4995729;28;20030;-79
2024/01/24 01:41:25;;;;;;;3.33;1.60;;;;;;;11.14;100.00;101287.69;4995262;28;20015;-78
2024/01/24 01:43:51;;;;;;;5.05;1.63;;;;;;;11.41;100.00;101330.97;4995849;28;20030;-79
2024/01/24 01:46:21;;;;;;;2.58;1.42;;;;;;;11.38;100.00;101337.13;4995286;28;20019;-79
2024/01/24 01:48:49;;;;;;;2.42;1.63;;;;;;;11.30;100.00;101334.13;4995299;28;20101;-79
2024/01/24 01:51:16;;;;;;;2.70;1.83;;;;;;;11.25;100.00;101325.00;4995296;28;20042;-79
2024/01/24 01:53:43;;;;;;;3.92;2.20;;;;;;;11.25;100.00;101330.19;4995167;28;20038;-79
2024/01/24 01:56:11;;;;;;;4.13;2.08;;;;;;;11.18;100.00;101343.44;4995315;28;20129;-79
2024/01/24 01:58:38;;;;;;;4.00;2.05;;;;;;;10.86;100.00;101291.00;4995755;28;20081;-80
2024/01/24 02:01:06;;;;;;;5.13;2.30;;;;;;;10.91;100.00;101321.75;4995270;28;20031;-79
2024/01/24 02:03:31;;;;;;;2.72;2.13;;;;;;;10.96;100.00;101326.66;4995113;28;20034;-80
2024/01/24 02:05:57;;;;;;;2.50;2.05;;;;;;;10.91;100.00;101309.69;4977604;28;20085;-82
2024/01/24 02:08:22;;;;;;;4.50;2.22;;;;;;;10.80;100.00;101304.25;4995093;28;20030;-79
2024/01/24 02:10:48;;;;;;;3.38;2.33;;;;;;;10.89;100.00;101315.84;4995087;28;20355;-79
2024/01/24 02:13:13;;;;;;;3.42;2.20;;;;;;;10.85;100.00;101325.53;4994972;28;20022;-80
2024/01/24 02:15:38;;;;;;;3.40;2.20;;;;;;;10.85;100.00;101324.69;4995084;28;20030;-79
2024/01/24 02:18:04;;;;;;;2.65;2.20;;;;;;;10.83;100.00;101335.13;4994869;28;20025;-79
2024/01/24 02:20:31;;;;;;;2.97;1.85;;;;;;;10.84;100.00;101323.03;4995092;28;20030;-80
2024/01/24 02:22:57;;;;;;;2.75;2.10;;;;;;;10.67;100.00;101290.38;4995079;28;20022;-79
2024/01/24 02:25:22;;;;;;;3.90;2.00;;;;;;;10.74;100.00;101316.72;4977310;28;20064;-80
2024/01/24 02:27:47;;;;;;;2.53;2.03;;;;;;;10.71;100.00;101306.53;4994908;28;20018;-80
2024/01/24 02:30:14;;;;;;;2.67;2.20;;;;;;;10.80;100.00;101326.69;4994757;28;20029;-79
2024/01/24 02:32:39;;;;;;;2.30;2.10;;;;;;;10.67;100.00;101316.22;4994789;28;20394;-79
2024/01/24 02:35:05;;;;;;;2.47;1.90;;;;;;;10.59;100.00;101288.22;4994906;28;20029;-79
2024/01/24 02:37:30;;;;;;;2.65;2.30;;;;;;;10.65;100.00;101291.41;4994512;28;20038;-80
2024/01/24 02:39:56;;;;;;;3.03;1.83;;;;;;;10.80;100.00;101342.19;4994508;28;20029;-80
2024/01/24 02:42:21;;;;;;;3.83;2.17;;;;;;;10.80;100.00;101358.50;4994575;28;20035;-80
2024/01/24 02:44:46;;;;;;;2.53;2.03;;;;;;;10.80;100.00;101350.75;4994513;28;20465;-79
2024/01/24 02:47:12;;;;;;;2.63;1.90;;;;;;;10.72;100.00;101340.06;4994415;28;20066;-79
2024/01/24 02:49:38;;;;;;;2.90;1.95;;;;;;;10.80;100.00;101353.34;4994342;28;20030;-80
2024/01/24 02:52:04;;;;;;;2.20;1.80;;;;;;;10.81;100.00;101349.84;4994430;28;20026;-79
2024/01/24 02:54:30;;;;;;;2.95;2.05;;;;;;;10.81;100.00;101341.25;4975779;28;20049;-80
2024/01/24 02:56:55;;;;;;;3.00;1.95;;;;;;;10.81;100.00;101343.84;4994170;28;20049;-80
2024/01/24 02:59:20;;;;;;;2.90;2.38;;;;;;;10.77;100.00;101304.44;4994126;28;20089;-79
2024/01/24 03:01:46;;;;;;;2.10;1.83;;;;;;;10.83;100.00;101301.53;4994107;28;20068;-79
2024/01/24 03:04:11;;;;;;;3.47;2.50;;;;;;;10.81;100.00;101312.84;4993885;28;20022;-80
2024/01/24 03:06:37;;;;;;;3.75;2.80;;;;;;;10.69;100.00;101309.19;4976784;28;20437;-79
2024/01/24 03:09:03;;;;;;;3.22;2.75;;;;;;;10.73;100.00;101307.31;4993948;28;20045;-79
2024/01/24 03:11:28;;;;;;;4.03;2.90;;;;;;;10.70;100.00;101308.28;4993815;28;20023;-80
2024/01/24 03:13:53;;;;;;;3.83;3.13;;;;;;;10.77;100.00;101319.13;4994162;28;20034;-80
2024/01/24 03:16:19;;;;;;;4.82;3.53;;;;;;;10.84;100.00;101315.28;4994025;28;20050;-79
2024/01/24 03:18:44;;;;;;;4.88;3.60;;;;;;;10.72;100.00;101316.81;4993831;28;20048;-80
2024/01/24 03:21:17;;;;;;;4.47;3.65;;;;;;;10.47;100.00;101273.41;4993982;28;20094;-78
2024/01/24 03:23:42;;;;;;;6.07;3.60;;;;;;;10.52;100.00;101302.41;4993785;28;20085;-79
2024/01/24 03:26:08;;;;;;;4.72;3.58;;;;;;;10.79;100.00;101343.94;4993585;28;20022;-79
2024/01/24 03:28:34;;;;;;;5.25;4.00;;;;;;;10.65;100.00;101330.13;4993898;28;20050;-80
2024/01/24 03:31:00;;;;;;;6.57;3.95;;;;;;;10.71;100.00;101363.34;4993691;28;20057;-80
2024/01/24 03:33:25;;;;;;;5.63;3.90;;;;;;;10.76;100.00;101377.69;4993482;28;20458;-79
2024/01/24 03:35:51;;;;;;;5.57;3.40;;;;;;;10.56;100.00;101355.53;4993649;28;20030;-80
2024/01/24 03:38:16;;;;;;;5.13;2.75;;;;;;;10.72;100.00;101390.88;4993538;28;20022;-79
2024/01/24 03:40:42;;;;;;;4.53;2.20;;;;;;;10.70;100.00;101378.03;4993333;28;20466;-79
2024/01/24 03:43:10;;;;;;;6.88;2.05;;;;;;;10.60;100.00;101369.94;4993513;28;20026;-80
2024/01/24 03:45:36;;;;;;;6.55;2.10;;;;;;;10.67;100.00;101391.13;4976505;28;20109;-81
2024/01/24 03:48:03;;;;;;;5.70;1.95;;;;;;;10.67;100.00;101423.88;4993414;28;20129;-80
2024/01/24 03:50:28;;;;;;;5.10;1.60;;;;;;;10.70;100.00;101411.59;4993627;28;20166;-80
2024/01/24 03:52:54;;;;;;;6.45;1.70;;;;;;;10.62;100.00;101386.22;5003443;28;20038;-81
2024/01/24 03:55:19;;;;;;;7.80;1.80;;;;;;;10.87;100.00;101424.44;5012871;28;20056;-81
2024/01/24 03:57:44;;;;;;;7.45;1.67;;;;;;;10.89;100.00;101419.19;5012784;28;20100;-80
2024/01/24 04:00:11;;;;;;;8.05;1.70;;;;;;;10.88;100.00;101417.53;4995169;28;20536;-80
2024/01/24 04:02:36;;;;;;;9.38;2.10;;;;;;;11.03;100.00;101414.09;5013085;28;20056;-80
2024/01/24 04:05:02;;;;;;;7.60;1.75;;;;;;;11.06;100.00;101424.28;4994995;28;20026;-80
2024/01/24 04:07:27;;;;;;;9.40;2.05;;;;;;;11.06;100.00;101411.34;5012731;28;20109;-80
2024/01/24 04:09:53;;;;;;;9.68;1.98;;;;;;;10.88;100.00;101379.59;5012708;28;20477;-80
2024/01/24 04:12:18;;;;;;;10.73;2.35;;;;;;;10.93;100.00;101371.59;5012802;28;20465;-80
2024/01/24 04:14:43;;;;;;;12.13;2.70;;;;;;;10.86;100.00;101375.44;5012694;28;20026;-80
2024/01/24 04:17:09;;;;;;;9.30;2.78;;;;;;;10.92;100.00;101403.53;5012857;28;20061;-79
2024/01/24 04:19:34;;;;;;;14.35;3.22;;;;;;;10.98;100.00;101418.69;5012704;28;20026;-80
2024/01/24 04:21:59;;;;;;;8.20;2.40;;;;;;;10.88;100.00;101414.94;5012638;28;20053;-80
2024/01/24 04:24:24;;;;;;;11.68;2.90;;;;;;;10.81;100.00;101411.84;5012694;28;20117;-80
2024/01/24 04:26:50;;;;;;;13.60;2.63;;;;;;;10.88;100.00;101451.94;5012678;28;20018;-80
2024/01/24 04:29:16;;;;;;;14.02;3.33;;;;;;;10.90;100.00;101462.19;5012389;28;20468;-79
2024/01/24 04:31:42;;;;;;;13.32;3.22;;;;;;;10.81;100.00;101452.34;5012610;28;20034;-80
2024/01/24 04:34:07;;;;;;;14.85;2.78;;;;;;;10.95;100.00;101457.63;5012671;28;20033;-80
2024/01/24 04:36:32;;;;;;;14.05;4.07;;;;;;;11.01;100.00;101454.72;5012428;28;20037;-80
2024/01/24 04:38:59;;;;;;;17.08;3.45;;;;;;;10.87;100.00;101441.69;5012541;28;20108;-79
2024/01/24 04:41:24;;;;;;;14.65;3.20;;;;;;;10.95;100.00;101464.53;4994530;28;20085;-79
2024/01/24 04:43:50;;;;;;;16.17;3.33;;;;;;;10.99;100.00;101489.28;5012332;28;20034;-79
2024/01/24 04:46:16;;;;;;;15.25;3.30;;;;;;;10.96;100.00;101499.81;5012471;28;20018;-79
2024/01/24 04:48:43;;;;;;;15.52;3.45;;;;;;;10.92;100.00;101486.22;5012364;28;20097;-79
2024/01/24 04:51:08;;;;;;;14.82;3.72;;;;;;;10.86;100.00;101465.88;5012304;28;20486;-79
2024/01/24 04:53:35;;;;;;;16.42;4.00;;;;;;;10.91;100.00;101458.69;5012411;28;20026;-81
2024/01/24 04:56:00;;;;;;;15.05;3.45;;;;;;;10.76;100.00;101441.44;5012248;28;20358;-78
2024/01/24 04:58:26;;;;;;;18.42;4.07;;;;;;;10.85;100.00;101475.38;5012440;28;20106;-78
2024/01/24 05:00:52;;;;;;;21.00;4.93;;;;;;;10.66;100.00;101450.59;4994503;28;20068;-78
2024/01/24 05:03:17;;;;;;;16.52;3.78;;;;;;;10.77;100.00;101495.63;5012235;28;20386;-78
2024/01/24 05:05:42;;;;;;;20.70;4.40;;;;;;;10.76;100.00;101504.28;5011871;28;20105;-77
2024/01/24 05:08:08;;;;;;;16.63;3.78;;;;;;;10.69;100.00;101479.69;5012363;28;20025;-78
2024/01/24 05:10:33;;;;;;;22.58;4.63;;;;;;;10.68;100.00;101498.69;4994419;28;20109;-78
2024/01/24 05:12:59;;;;;;;21.10;4.53;;;;;;;10.53;100.00;101495.16;5012060;28;20152;-78
2024/01/24 05:15:24;;;;;;;21.77;4.82;;;;;;;10.69;100.00;101512.44;5011949;28;20022;-78
2024/01/24 05:17:49;;;;;;;19.17;4.93;;;;;;;10.56;100.00;101505.31;5014443;28;20061;-78
2024/01/24 05:20:17;;;;;;;20.10;4.88;;;;;;;10.67;100.00;101527.19;5015414;28;20132;-77
2024/01/24 05:22:43;;;;;;;20.70;4.88;;;;;;;10.65;100.00;101510.94;4997567;28;20045;-78
2024/01/24 05:25:08;;;;;;;20.17;4.90;;;;;;;10.78;100.00;101540.38;5015641;28;20030;-78
2024/01/24 05:27:34;;;;;;;22.70;4.82;;;;;;;10.84;100.00;101538.31;5015331;28;20025;-78
2024/01/24 05:29:59;;;;;;;21.58;4.78;;;;;;;10.86;100.00;101533.88;5015248;28;20026;-81
2024/01/24 05:32:24;;;;;;;23.58;5.03;;;;;;;10.84;100.00;101509.88;5015343;28;20030;-78
2024/01/24 05:34:49;;;;;;;19.13;4.90;;;;;;;10.74;100.00;101507.88;5015188;28;20038;-80
2024/01/24 05:37:15;;;;;;;20.50;5.53;;;;;;;10.82;100.00;101518.63;5015384;28;20034;-78
2024/01/24 05:39:41;;;;;;;23.23;6.05;;;;;;;10.82;100.00;101516.88;4997597;28;20069;-78
2024/01/24 05:42:07;;;;;;;15.52;4.72;;;;;;;10.81;100.00;101527.28;5015183;28;20030;-79
2024/01/24 05:44:33;;;;;;;22.33;4.95;;;;;;;10.81;100.00;101519.53;5015278;28;20030;-79
2024/01/24 05:46:58;;;;;;;22.13;5.18;;;;;;;10.77;100.00;101538.69;5014734;28;20110;-79
2024/01/24 05:49:23;;;;;;;24.42;5.28;;;;;;;10.74;100.00;101510.47;5014869;28;20114;-79
2024/01/24 05:51:49;;;;;;;21.50;4.88;;;;;;;10.55;100.00;101489.91;5014771;28;20034;-79
2024/01/24 05:54:14;;;;;;;21.70;5.03;;;;;;;10.60;100.00;101517.16;5015065;28;20030;-78
2024/01/24 05:56:40;;;;;;;24.65;5.35;;;;;;;10.77;100.00;101523.19;5015062;28;20057;-79
2024/01/24 05:59:05;;;;;;;20.08;4.63;;;;;;;10.76;100.00;101529.28;5014887;28;20549;-79
2024/01/24 06:01:30;;;;;;;26.95;5.85;;;;;;;10.73;100.00;101522.53;5014709;28;20497;-79
2024/01/24 06:03:56;;;;;;;24.17;5.40;;;;;;;10.65;100.00;101536.75;5014833;28;20470;-79
2024/01/24 06:06:21;;;;;;;26.73;5.90;;;;;;;10.44;100.00;101538.69;5014596;28;20165;-79
2024/01/24 06:08:46;;;;;;;26.88;6.25;;;;;;;10.54;100.00;101550.22;5014628;28;20099;-79
2024/01/24 06:11:14;;;;;;;25.25;6.65;;;;;;;10.71;100.00;101578.59;5014780;28;20531;-79
2024/01/24 06:13:40;;;;;;;24.55;5.35;;;;;;;10.71;100.00;101580.34;5014741;28;20033;-78
2024/01/24 06:16:06;;;;;;;23.15;5.82;;;;;;;10.75;100.00;101585.28;5014562;28;20156;-78
2024/01/24 06:18:31;;;;;;;25.88;5.55;;;;;;;10.74;100.00;101609.44;5014417;28;20421;-79
2024/01/24 06:20:57;;;;;;;29.02;6.80;;;;;;;10.71;100.00;101580.34;5014575;28;20042;-79
2024/01/24 06:23:22;;;;;;;27.15;5.47;;;;;;;10.68;100.00;101602.00;5014474;28;20026;-79
2024/01/24 06:25:47;;;;;;;31.75;6.32;;;;;;;10.75;100.00;101630.94;5014383;28;20022;-78
2024/01/24 06:28:13;;;;;;;33.35;7.63;;;;;;;10.56;100.00;101611.22;5014378;28;20501;-79
2024/01/24 06:30:38;;;;;;;24.23;5.15;;;;;;;10.51;100.00;101636.41;5014416;28;20100;-79
2024/01/24 06:33:04;;;;;;;27.85;6.68;;;;;;;10.32;100.00;101631.34;5014149;28;20481;-78
2024/01/24 06:35:31;;;;;;;22.17;6.00;;;;;;;10.28;100.00;101662.53;5014240;28;20440;-79
2024/01/24 06:37:56;;;;;;;27.60;6.00;;;;;;;10.33;100.00;101661.44;5013951;28;20022;-78
2024/01/24 06:40:21;;;;;;;24.52;6.00;;;;;;;10.29;100.00;101671.97;5014238;28;20141;-78
2024/01/24 06:42:47;;;;;;;26.80;6.32;;;;;;;10.28;100.00;101676.28;5013947;28;20462;-80
2024/01/24 06:45:12;;;;;;;33.72;6.53;;;;;;;10.10;100.00;101661.63;5014075;28;20095;-77
2024/01/24 06:47:37;;;;;;;29.35;6.28;;;;;;;10.24;100.00;101705.75;5013839;28;20030;-78
2024/01/24 06:50:05;;;;;;;27.70;6.38;;;;;;;10.17;100.00;101688.84;5013467;28;20128;-78
2024/01/24 06:52:30;;;;;;;26.10;6.68;;;;;;;10.17;100.00;101694.00;5013883;28;20026;-78
2024/01/24 06:54:56;;;;;;;30.60;6.40;;;;;;;10.21;100.00;101725.66;5013748;28;20018;-77
2024/01/24 06:57:21;;;;;;;26.65;6.63;;;;;;;9.95;100.00;101701.09;5013529;28;20187;-78
2024/01/24 06:59:47;;;;;;;23.15;6.13;;;;;;;9.90;100.00;101701.28;5013744;28;20124;-77
2024/01/24 07:02:13;;;;;;;33.25;6.95;;;;;;;10.06;100.00;101735.81;5013780;28;20069;-79
2024/01/24 07:04:38;;;;;;;26.85;8.45;;;;;;;10.01;100.00;101745.47;5013601;28;20100;-79
2024/01/24 07:07:04;;;;;;;39.05;8.05;;;;;;;9.92;100.00;101722.69;5013575;28;20061;-78
2024/01/24 07:09:29;;;;;;;31.02;7.30;;;;;;;9.84;100.00;101726.53;5013462;28;20478;-78
2024/01/24 07:11:54;;;;;;;31.67;7.03;;;;;;;9.68;100.00;101732.38;5013289;28;20030;-78
2024/01/24 07:14:20;;;;;;;31.23;7.40;;;;;;;9.69;100.00;101751.28;5013491;28;20099;-78
2024/01/24 07:16:45;;;;;;;36.17;8.30;;;;;;;9.54;100.00;101745.06;5013385;28;20049;-77
2024/01/24 07:19:10;;;;;;;31.48;7.88;;;;;;;9.55;100.00;101745.91;4995668;28;20421;-79
2024/01/24 07:21:36;;;;;;;29.73;7.25;;;;;;;9.35;100.00;101745.03;5012933;28;20129;-78
2024/01/24 07:24:01;;;;;;;29.90;6.88;;;;;;;9.48;100.00;101787.41;5013256;28;20030;-77
2024/01/24 07:26:28;;;;;;;28.88;7.03;;;;;;;9.49;100.00;101763.28;5013377;28;20355;-78
2024/01/24 07:28:53;;;;;;;27.05;6.55;;;;;;;9.51;100.00;101749.50;5013230;28;20033;-78
2024/01/24 07:31:19;;;;;;;39.05;8.32;;;;;;;9.48;100.00;101753.88;4992635;28;20018;-75
2024/01/24 07:33:44;;;;;;;30.80;7.75;;;;;;;9.48;100.00;101782.25;4974790;28;20022;-75
2024/01/24 07:36:10;;;;;;;33.15;7.65;;;;;;;9.34;100.00;101761.41;4974492;28;20489;-77
2024/01/24 07:38:37;;;;;;;40.28;7.45;;;;;;;9.42;100.00;101789.41;4974208;28;20019;-78
2024/01/24 07:41:02;;;;;;;36.08;7.38;;;;;;;9.40;100.00;101798.94;4973569;28;20034;-75
2024/01/24 07:43:29;;;;;;;36.17;7.85;;;;;;;9.29;100.00;101757.31;4974122;28;20034;-77
2024/01/24 07:45:54;;;;;;;33.42;7.30;;;;;;;9.32;100.00;101776.06;4956770;28;20023;-75
2024/01/24 07:48:20;;;;;;;27.10;7.35;;;;;;;9.27;100.00;101793.47;4973757;28;20081;-77
2024/01/24 07:50:45;;;;;;;36.05;8.02;;;;;;;8.96;100.00;101750.13;4956134;28;20090;-79
2024/01/24 07:53:11;;;;;;;30.95;7.63;;;;;;;9.19;100.00;101800.69;4973552;28;20030;-78
2024/01/24 07:55:36;;;;;;;32.85;7.50;;;;;;;9.25;100.00;101813.34;4973833;28;20030;-78
2024/01/24 07:58:02;;;;;;;35.10;9.13;;;;;;;9.22;100.00;101820.34;4973712;28;20058;-77
2024/01/24 08:00:27;;;;;;;33.80;7.35;;;;;;;9.07;100.00;101780.59;4973774;28;20030;-78
2024/01/24 08:02:53;;;;;;;33.08;8.05;;;;;;;9.12;100.00;101782.06;4973675;28;20113;-80
2024/01/24 08:05:19;;;;;;;27.92;7.38;;;;;;;9.29;100.00;101832.91;4973722;28;20410;-76
2024/01/24 08:07:44;;;;;;;33.55;7.97;;;;;;;9.29;100.00;101824.34;4973351;28;20018;-77
2024/01/24 08:10:12;;;;;;;30.35;6.95;;;;;;;9.18;100.00;101809.31;4973554;28;20093;-76
2024/01/24 08:12:38;;;;;;;32.95;7.13;;;;;;;9.24;100.00;101841.72;4973662;28;20054;-76
2024/01/24 08:15:05;;;;;;;31.70;7.85;;;;;;;9.07;100.00;101816.66;4973647;28;20019;-79
2024/01/24 08:17:32;;;;;;;34.75;8.25;;;;;;;9.18;100.00;101856.56;4973564;28;20066;-78
2024/01/24 08:19:58;;;;;;;33.72;8.35;;;;;;;9.24;100.00;101868.34;4973535;28;20034;-79
2024/01/24 08:22:23;;;;;;;33.63;7.65;;;;;;;9.28;100.00;101867.31;4973047;28;20113;-79
2024/01/24 08:24:48;;;;;;;32.55;7.05;;;;;;;9.24;100.00;101850.28;4973897;28;20054;-81
2024/01/24 08:27:14;;;;;;;37.28;8.23;;;;;;;9.11;100.00;101851.69;4956393;28;20030;-78
2024/01/24 08:29:39;;;;;;;26.95;7.70;;;;;;;9.31;100.00;101881.81;4973438;28;20027;-79
2024/01/24 08:32:05;;;;;;;31.67;8.27;;;;;;;9.22;100.00;101862.41;4973489;28;20054;-78
2024/01/24 08:34:30;;;;;;;32.30;7.43;;;;;;;9.11;100.00;101841.41;4973492;28;20097;-78
2024/01/24 08:36:55;;;;;;;32.92;7.57;;;;;;;9.20;100.00;101859.91;4973317;28;20022;-77
2024/01/24 08:39:21;;;;;;;31.08;6.70;;;;;;;9.33;100.00;101903.22;4973271;28;20391;-78
2024/01/24 08:41:46;;;;;;;32.03;8.43;;;;;;;9.21;100.00;101878.78;4973487;28;20061;-77
2024/01/24 08:44:11;;;;;;;35.03;7.45;;;;;;;9.37;100.00;101902.19;4956052;28;20066;-81
2024/01/24 08:46:37;;;;;;;34.50;8.07;;;;;;;9.39;100.00;101918.44;4973446;28;20027;-77
2024/01/24 08:49:02;;;;;;;30.45;7.55;;;;;;;9.43;100.00;101930.28;4973159;28;20034;-78
2024/01/24 08:51:31;;;;;;;34.13;8.23;;;;;;;9.27;100.00;101899.16;4973532;28;20043;-76
2024/01/24 08:53:58;;;;;;;34.05;7.28;;;;;;;9.36;100.00;101916.00;4976741;28;20031;-78
2024/01/24 08:56:24;;;;;;;30.50;7.40;;;;;;;9.42;100.00;101918.31;4976849;28;20029;-78
2024/01/24 08:58:49;;;;;;;31.02;6.97;;;;;;;9.45;100.00;101920.78;4976851;28;20031;-78
2024/01/24 09:01:15;;;;;;;30.92;7.82;;;;;;;9.25;100.00;101892.41;4977083;28;20023;-77
2024/01/24 09:03:41;;;;;;;23.88;6.88;;;;;;;9.29;100.00;101914.56;4976826;28;20027;-79
2024/01/24 09:06:07;;;;;;;30.25;7.53;;;;;;;9.39;100.00;101955.38;4976838;28;20026;-77
2024/01/24 09:08:32;;;;;;;32.85;7.65;;;;;;;9.24;100.00;101932.75;4976411;28;20082;-79
2024/01/24 09:10:58;;;;;;;37.58;7.63;;;;;;;9.23;100.00;101950.88;4976872;28;20041;-77
2024/01/24 09:13:23;;;;;;;33.10;7.88;;;;;;;9.36;100.00;101976.13;4975192;28;20023;-76
2024/01/24 09:15:48;;;;;;;31.85;7.35;;;;;;;9.39;100.00;101942.47;4977357;28;20085;-77
2024/01/24 09:18:15;;;;;;;32.17;7.70;;;;;;;9.24;100.00;101948.22;4976904;28;20478;-78
2024/01/24 09:20:41;;;;;;;35.53;7.90;;;;;;;9.42;100.00;101949.25;4976676;28;20065;-74
2024/01/24 09:23:06;;;;;;;36.45;7.93;;;;;;;9.45;100.00;101952.56;4976302;28;20056;-76
2024/01/24 09:25:32;;;;;;;33.85;8.43;;;;;;;9.49;100.00;101971.31;4976377;28;20045;-77
2024/01/24 09:27:57;;;;;;;29.23;7.25;;;;;;;9.55;100.00;101980.56;4976546;28;20031;-79
2024/01/24 09:30:23;;;;;;;34.30;7.65;;;;;;;9.59;100.00;101994.97;4976072;28;20118;-77
2024/01/24 09:32:48;;;;;;;32.83;6.90;;;;;;;9.43;100.00;101961.22;4976340;28;20027;-76
2024/01/24 09:35:13;;;;;;;33.25;8.10;;;;;;;9.65;100.00;102005.91;4976338;28;20038;-77
2024/01/24 09:37:39;;;;;;;29.55;7.97;;;;;;;9.48;100.00;101980.78;4958646;28;20030;-77
2024/01/24 09:40:06;;;;;;;34.38;7.35;;;;;;;9.49;100.00;102012.56;4976046;28;20543;-76
2024/01/24 09:42:35;;;;;;;29.92;7.68;;;;;;;9.64;100.00;102031.75;4976266;28;20383;-76
2024/01/24 09:45:03;;;;;;;32.72;7.18;;;;;;;9.50;100.00;102027.13;4975925;28;20026;-77
2024/01/24 09:47:29;;;;;;;29.80;6.95;;;;;;;9.49;100.00;102021.13;4975940;28;20534;-75
2024/01/24 09:49:55;;;;;;;29.67;7.13;;;;;;;9.58;100.00;102039.72;4975689;28;20117;-76
2024/01/24 09:52:26;;;;;;;25.75;7.68;;;;;;;9.55;100.00;102021.81;4975824;28;20058;-80
2024/01/24 09:54:57;;;;;;;;;;;;;;;9.55;100.00;102034.69;4958700;28;20445;-78
2024/01/24 09:57:23;;;;;;;30.02;6.85;;;;;;;9.31;100.00;102019.28;4976012;28;19925;-79
2024/01/24 09:59:48;;;;;;;39.22;8.00;;;;;;;9.48;100.00;102050.41;4975812;28;20030;-75
2024/01/24 10:02:14;;;;;;;27.33;7.15;;;;;;;9.34;100.00;102026.91;4975499;28;20058;-84
2024/01/24 10:04:42;;;;;;;28.77;7.40;;;;;;;9.51;100.00;102059.75;4958504;28;20027;-79
2024/01/24 10:07:08;;;;;;;26.05;6.45;;;;;;;9.51;100.00;102066.66;4975728;28;20166;-79
2024/01/24 10:09:34;;;;;;;33.67;7.43;;;;;;;9.20;100.00;102011.13;4975476;28;20062;-80
2024/01/24 10:11:59;;;;;;;35.65;8.43;;;;;;;9.30;100.00;102014.19;4974663;28;20474;-78
2024/01/24 10:14:25;;;;;;;34.63;8.20;;;;;;;9.40;100.00;102031.81;4976246;28;20471;-75
2024/01/24 10:16:50;;;;;;;35.67;7.30;;;;;;;9.30;100.00;102012.44;4975969;28;20383;-78
2024/01/24 10:19:21;;;;;;;32.72;7.10;;;;;;;9.60;100.00;102056.81;4975639;28;20498;-77
2024/01/24 10:21:48;;;;;;;33.17;7.10;;;;;;;9.64;100.00;102048.06;4975373;28;20042;-77
2024/01/24 10:24:16;;;;;;;30.95;7.43;;;;;;;9.57;100.00;102040.63;4975144;28;20120;-84
2024/01/24 10:26:44;;;;;;;29.88;8.32;;;;;;;9.86;100.00;102091.91;4975017;28;20069;-78
2024/01/24 10:29:11;;;;;;;32.97;7.63;;;;;;;9.75;100.00;102052.81;4975286;28;20033;-80
2024/01/24 10:31:37;;;;;;;30.88;7.22;;;;;;;10.06;100.00;102098.84;4975287;28;20030;-81
2024/01/24 10:34:06;;;;;;;31.00;7.05;;;;;;;9.90;100.00;102065.06;4975232;28;20394;-82
2024/01/24 10:36:32;;;;;;;30.63;7.32;;;;;;;10.20;100.00;102093.94;4975161;28;20035;-81
2024/01/24 10:39:00;;;;;;;29.38;6.78;;;;;;;10.12;100.00;102095.16;4974995;28;20034;-83
2024/01/24 10:41:39;;;;;;;30.08;7.32;;;;;;;10.09;99.46;102109.03;4974874;28;20030;-80
2024/01/24 10:44:07;;;;;;;29.33;6.88;;;;;;;10.28;99.93;102115.16;4975081;28;20046;-78
2024/01/24 10:46:33;;;;;;;31.92;6.63;;;;;;;10.27;99.82;102112.66;4975125;28;20117;-79
2024/01/24 10:48:59;;;;;;;34.25;7.68;;;;;;;10.24;99.85;102125.69;4975002;28;20033;-80
2024/01/24 10:51:26;;;;;;;29.58;7.00;;;;;;;10.09;100.00;102103.88;4974960;28;20074;-83
2024/01/24 10:53:52;;;;;;;33.15;6.93;;;;;;;10.21;100.00;102139.50;4974653;28;20356;-79
2024/01/24 10:56:19;;;;;;;32.92;7.70;;;;;;;10.20;100.00;102134.41;4974906;28;20030;-79
2024/01/24 10:58:45;;;;;;;25.08;6.45;;;;;;;10.12;99.90;102146.78;4974864;28;20033;-78
2024/01/24 11:01:11;;;;;;;27.67;6.47;;;;;;;10.04;100.00;102129.88;4974883;28;20443;-77
2024/01/24 11:03:36;;;;;;;27.65;6.93;;;;;;;9.92;99.19;102117.44;4974667;28;20027;-77
2024/01/24 11:06:07;;;;;;;26.33;6.60;;;;;;;10.00;98.85;102130.06;4974701;28;20056;-77
2024/01/24 11:08:40;;;;;;;33.28;7.95;;;;;;;10.07;100.00;102132.34;4974340;28;20056;-77